sensor_id;sensor_type;location;lat;lon;timestamp;temperature;humidity
7814;DHT22;3952;48.364;16.022;2022-08-02T00:01:06;19.10;99.90
7814;DHT22;3952;48.364;16.022;2022-08-02T00:03:33;19.10;99.90
7814;DHT22;3952;48.364;16.022;2022-08-02T00:06:00;19.10;99.90
7814;DHT22;3952;48.364;16.022;2022-08-02T00:08:29;19.00;99.90
7814;DHT22;3952;48.364;16.022;2022-08-02T00:10:56;19.10;99.90
7814;DHT22;3952;48.364;16.022;2022-08-02T00:13:23;19.10;99.90
7814;DHT22;3952;48.364;16.022;2022-08-02T00:15:50;19.10;99.90
7814;DHT22;3952;48.364;16.022;2022-08-02T00:18:18;19.10;99.90
7814;DHT22;3952;48.364;16.022;2022-08-02T00:20:45;19.10;99.90
7814;DHT22;3952;48.364;16.022;2022-08-02T00:23:12;19.00;99.90
7814;DHT22;3952;48.364;16.022;2022-08-02T00:25:41;19.00;99.90
7814;DHT22;3952;48.364;16.022;2022-08-02T00:28:09;19.00;99.90
7814;DHT22;3952;48.364;16.022;2022-08-02T00:30:36;19.00;99.90
7814;DHT22;3952;48.364;16.022;2022-08-02T00:33:04;19.00;99.90
7814;DHT22;3952;48.364;16.022;2022-08-02T00:35:33;19.00;99.90
7814;DHT22;3952;48.364;16.022;2022-08-02T00:38:01;18.90;99.90
7814;DHT22;3952;48.364;16.022;2022-08-02T00:40:29;18.90;99.90
7814;DHT22;3952;48.364;16.022;2022-08-02T00:43:04;18.90;99.90
7814;DHT22;3952;48.364;16.022;2022-08-02T00:45:33;18.90;99.90
7814;DHT22;3952;48.364;16.022;2022-08-02T00:48:00;18.90;99.90
7814;DHT22;3952;48.364;16.022;2022-08-02T00:50:27;18.80;99.90
7814;DHT22;3952;48.364;16.022;2022-08-02T00:52:56;18.80;99.90
7814;DHT22;3952;48.364;16.022;2022-08-02T00:55:24;18.80;99.90
7814;DHT22;3952;48.364;16.022;2022-08-02T00:57:52;18.80;99.90
7814;DHT22;3952;48.364;16.022;2022-08-02T01:00:21;18.70;99.90
7814;DHT22;3952;48.364;16.022;2022-08-02T01:02:48;18.80;99.90
7814;DHT22;3952;48.364;16.022;2022-08-02T01:05:16;18.70;99.90
7814;DHT22;3952;48.364;16.022;2022-08-02T01:07:43;18.70;99.90
7814;DHT22;3952;48.364;16.022;2022-08-02T01:10:10;18.70;99.90
7814;DHT22;3952;48.364;16.022;2022-08-02T01:12:38;18.70;99.90
7814;DHT22;3952;48.364;16.022;2022-08-02T01:15:08;18.60;99.90
7814;DHT22;3952;48.364;16.022;2022-08-02T01:17:44;18.60;99.90
7814;DHT22;3952;48.364;16.022;2022-08-02T01:20:45;18.50;99.90
7814;DHT22;3952;48.364;16.022;2022-08-02T01:23:30;18.50;99.90
7814;DHT22;3952;48.364;16.022;2022-08-02T01:26:21;18.40;99.90
7814;DHT22;3952;48.364;16.022;2022-08-02T01:28:57;18.40;99.90
7814;DHT22;3952;48.364;16.022;2022-08-02T01:31:29;18.40;99.90
7814;DHT22;3952;48.364;16.022;2022-08-02T01:34:01;18.30;99.90
7814;DHT22;3952;48.364;16.022;2022-08-02T01:36:33;18.30;99.90
7814;DHT22;3952;48.364;16.022;2022-08-02T01:39:02;18.20;99.90
7814;DHT22;3952;48.364;16.022;2022-08-02T01:41:32;18.10;99.90
7814;DHT22;3952;48.364;16.022;2022-08-02T01:44:03;18.20;99.90
7814;DHT22;3952;48.364;16.022;2022-08-02T01:46:32;18.10;99.90
7814;DHT22;3952;48.364;16.022;2022-08-02T01:49:04;18.10;99.90
7814;DHT22;3952;48.364;16.022;2022-08-02T01:51:34;18.10;99.90
7814;DHT22;3952;48.364;16.022;2022-08-02T01:54:21;18.10;99.90
7814;DHT22;3952;48.364;16.022;2022-08-02T01:56:51;18.10;99.90
7814;DHT22;3952;48.364;16.022;2022-08-02T01:59:22;18.10;99.90
7814;DHT22;3952;48.364;16.022;2022-08-02T02:01:51;18.10;99.90
7814;DHT22;3952;48.364;16.022;2022-08-02T02:04:20;18.10;99.90
7814;DHT22;3952;48.364;16.022;2022-08-02T02:06:48;18.10;99.90
7814;DHT22;3952;48.364;16.022;2022-08-02T02:09:17;18.10;99.90
7814;DHT22;3952;48.364;16.022;2022-08-02T02:11:46;18.00;99.90
7814;DHT22;3952;48.364;16.022;2022-08-02T02:14:15;18.00;99.90
7814;DHT22;3952;48.364;16.022;2022-08-02T02:16:46;18.00;99.90
7814;DHT22;3952;48.364;16.022;2022-08-02T02:19:17;18.00;99.90
7814;DHT22;3952;48.364;16.022;2022-08-02T02:21:45;17.90;99.90
7814;DHT22;3952;48.364;16.022;2022-08-02T02:24:12;18.00;99.90
7814;DHT22;3952;48.364;16.022;2022-08-02T02:26:40;18.00;99.90
7814;DHT22;3952;48.364;16.022;2022-08-02T02:29:10;17.90;99.90
7814;DHT22;3952;48.364;16.022;2022-08-02T02:31:39;17.90;99.90
7814;DHT22;3952;48.364;16.022;2022-08-02T02:34:10;17.90;99.90
7814;DHT22;3952;48.364;16.022;2022-08-02T02:36:44;18.00;99.90
7814;DHT22;3952;48.364;16.022;2022-08-02T02:39:14;18.00;99.90
7814;DHT22;3952;48.364;16.022;2022-08-02T02:41:42;18.00;99.90
7814;DHT22;3952;48.364;16.022;2022-08-02T02:44:14;17.90;99.90
7814;DHT22;3952;48.364;16.022;2022-08-02T02:46:43;18.00;99.90
7814;DHT22;3952;48.364;16.022;2022-08-02T02:49:13;17.90;99.90
7814;DHT22;3952;48.364;16.022;2022-08-02T02:51:41;17.90;99.90
7814;DHT22;3952;48.364;16.022;2022-08-02T02:54:10;17.90;99.90
7814;DHT22;3952;48.364;16.022;2022-08-02T02:56:39;17.80;99.90
7814;DHT22;3952;48.364;16.022;2022-08-02T02:59:07;17.80;99.90
7814;DHT22;3952;48.364;16.022;2022-08-02T03:01:35;17.80;99.90
7814;DHT22;3952;48.364;16.022;2022-08-02T03:04:05;17.80;99.90
7814;DHT22;3952;48.364;16.022;2022-08-02T03:06:35;17.70;99.90
7814;DHT22;3952;48.364;16.022;2022-08-02T03:09:03;17.70;99.90
7814;DHT22;3952;48.364;16.022;2022-08-02T03:11:31;17.70;99.90
7814;DHT22;3952;48.364;16.022;2022-08-02T03:14:00;17.70;99.90
7814;DHT22;3952;48.364;16.022;2022-08-02T03:16:29;17.70;99.90
7814;DHT22;3952;48.364;16.022;2022-08-02T03:18:56;17.80;99.90
7814;DHT22;3952;48.364;16.022;2022-08-02T03:21:24;17.80;99.90
7814;DHT22;3952;48.364;16.022;2022-08-02T03:23:52;17.70;99.90
7814;DHT22;3952;48.364;16.022;2022-08-02T03:26:20;17.70;99.90
7814;DHT22;3952;48.364;16.022;2022-08-02T03:28:47;17.70;99.90
7814;DHT22;3952;48.364;16.022;2022-08-02T03:31:14;17.70;99.90
7814;DHT22;3952;48.364;16.022;2022-08-02T03:33:41;17.60;99.90
7814;DHT22;3952;48.364;16.022;2022-08-02T03:36:11;17.60;99.90
7814;DHT22;3952;48.364;16.022;2022-08-02T03:38:39;17.60;99.90
7814;DHT22;3952;48.364;16.022;2022-08-02T03:41:10;17.60;99.90
7814;DHT22;3952;48.364;16.022;2022-08-02T03:43:39;17.60;99.90
7814;DHT22;3952;48.364;16.022;2022-08-02T03:46:08;17.60;99.90
7814;DHT22;3952;48.364;16.022;2022-08-02T03:48:36;17.60;99.90
7814;DHT22;3952;48.364;16.022;2022-08-02T03:51:04;17.60;99.90
7814;DHT22;3952;48.364;16.022;2022-08-02T03:53:33;17.60;99.90
7814;DHT22;3952;48.364;16.022;2022-08-02T03:56:00;17.60;99.90
7814;DHT22;3952;48.364;16.022;2022-08-02T03:58:29;17.60;99.90
7814;DHT22;3952;48.364;16.022;2022-08-02T04:00:57;17.50;99.90
7814;DHT22;3952;48.364;16.022;2022-08-02T04:03:24;17.50;99.90
7814;DHT22;3952;48.364;16.022;2022-08-02T04:05:52;17.50;99.90
7814;DHT22;3952;48.364;16.022;2022-08-02T04:08:19;17.50;99.90
7814;DHT22;3952;48.364;16.022;2022-08-02T04:10:46;17.50;99.90
7814;DHT22;3952;48.364;16.022;2022-08-02T04:13:35;17.50;99.90
7814;DHT22;3952;48.364;16.022;2022-08-02T04:16:07;17.60;99.90
7814;DHT22;3952;48.364;16.022;2022-08-02T04:18:39;17.60;99.90
7814;DHT22;3952;48.364;16.022;2022-08-02T04:21:13;17.60;99.90
7814;DHT22;3952;48.364;16.022;2022-08-02T04:23:42;17.70;99.90
7814;DHT22;3952;48.364;16.022;2022-08-02T04:26:11;17.70;99.90
7814;DHT22;3952;48.364;16.022;2022-08-02T04:28:42;17.80;99.90
7814;DHT22;3952;48.364;16.022;2022-08-02T04:31:11;17.90;99.90
7814;DHT22;3952;48.364;16.022;2022-08-02T04:33:39;17.90;99.90
7814;DHT22;3952;48.364;16.022;2022-08-02T04:36:07;18.00;99.90
7814;DHT22;3952;48.364;16.022;2022-08-02T04:38:36;18.00;99.90
7814;DHT22;3952;48.364;16.022;2022-08-02T04:41:04;18.10;99.90
7814;DHT22;3952;48.364;16.022;2022-08-02T04:43:31;18.10;99.90
7814;DHT22;3952;48.364;16.022;2022-08-02T04:46:00;18.20;99.90
7814;DHT22;3952;48.364;16.022;2022-08-02T04:48:28;18.30;99.90
7814;DHT22;3952;48.364;16.022;2022-08-02T04:50:55;18.30;99.90
7814;DHT22;3952;48.364;16.022;2022-08-02T04:53:23;18.40;99.90
7814;DHT22;3952;48.364;16.022;2022-08-02T04:55:50;18.50;99.90
7814;DHT22;3952;48.364;16.022;2022-08-02T04:58:17;18.70;99.90
7814;DHT22;3952;48.364;16.022;2022-08-02T05:00:44;18.90;99.90
7814;DHT22;3952;48.364;16.022;2022-08-02T05:03:13;19.10;99.90
7814;DHT22;3952;48.364;16.022;2022-08-02T05:05:40;19.20;99.90
7814;DHT22;3952;48.364;16.022;2022-08-02T05:08:07;19.20;99.90
7814;DHT22;3952;48.364;16.022;2022-08-02T05:10:35;19.20;99.90
7814;DHT22;3952;48.364;16.022;2022-08-02T05:13:04;19.20;99.90
7814;DHT22;3952;48.364;16.022;2022-08-02T05:15:32;19.20;99.90
7814;DHT22;3952;48.364;16.022;2022-08-02T05:17:59;19.20;99.90
7814;DHT22;3952;48.364;16.022;2022-08-02T05:20:28;19.20;99.90
7814;DHT22;3952;48.364;16.022;2022-08-02T05:22:56;19.20;99.90
7814;DHT22;3952;48.364;16.022;2022-08-02T05:25:23;19.20;99.90
7814;DHT22;3952;48.364;16.022;2022-08-02T05:27:50;19.20;99.90
7814;DHT22;3952;48.364;16.022;2022-08-02T05:30:17;19.20;99.90
7814;DHT22;3952;48.364;16.022;2022-08-02T05:32:46;19.30;99.90
7814;DHT22;3952;48.364;16.022;2022-08-02T05:35:17;19.30;99.90
7814;DHT22;3952;48.364;16.022;2022-08-02T05:37:48;19.40;99.90
7814;DHT22;3952;48.364;16.022;2022-08-02T05:40:15;19.40;99.90
7814;DHT22;3952;48.364;16.022;2022-08-02T05:42:43;19.50;99.90
7814;DHT22;3952;48.364;16.022;2022-08-02T05:45:11;19.50;99.90
7814;DHT22;3952;48.364;16.022;2022-08-02T05:47:39;19.50;99.90
7814;DHT22;3952;48.364;16.022;2022-08-02T05:50:07;19.60;99.90
7814;DHT22;3952;48.364;16.022;2022-08-02T05:52:43;19.60;99.90
7814;DHT22;3952;48.364;16.022;2022-08-02T05:55:15;19.60;99.90
7814;DHT22;3952;48.364;16.022;2022-08-02T05:57:50;19.70;99.90
7814;DHT22;3952;48.364;16.022;2022-08-02T06:00:19;19.70;99.90
7814;DHT22;3952;48.364;16.022;2022-08-02T06:03:15;19.70;99.90
7814;DHT22;3952;48.364;16.022;2022-08-02T06:05:50;19.70;99.90
7814;DHT22;3952;48.364;16.022;2022-08-02T06:08:20;19.80;99.90
7814;DHT22;3952;48.364;16.022;2022-08-02T06:10:55;19.80;99.90
7814;DHT22;3952;48.364;16.022;2022-08-02T06:13:25;19.90;99.90
7814;DHT22;3952;48.364;16.022;2022-08-02T06:15:53;19.90;99.90
7814;DHT22;3952;48.364;16.022;2022-08-02T06:18:25;19.90;99.90
7814;DHT22;3952;48.364;16.022;2022-08-02T06:20:56;19.90;99.90
7814;DHT22;3952;48.364;16.022;2022-08-02T06:23:25;19.90;99.90
7814;DHT22;3952;48.364;16.022;2022-08-02T06:25:55;19.90;99.90
7814;DHT22;3952;48.364;16.022;2022-08-02T06:28:23;19.90;99.90
7814;DHT22;3952;48.364;16.022;2022-08-02T06:30:51;19.90;99.90
7814;DHT22;3952;48.364;16.022;2022-08-02T06:33:19;20.00;99.90
7814;DHT22;3952;48.364;16.022;2022-08-02T06:35:54;20.10;99.90
7814;DHT22;3952;48.364;16.022;2022-08-02T06:38:24;20.10;99.90
7814;DHT22;3952;48.364;16.022;2022-08-02T06:41:00;20.20;99.90
7814;DHT22;3952;48.364;16.022;2022-08-02T06:43:37;20.20;99.90
7814;DHT22;3952;48.364;16.022;2022-08-02T06:46:08;20.30;99.90
7814;DHT22;3952;48.364;16.022;2022-08-02T06:48:35;20.30;99.90
7814;DHT22;3952;48.364;16.022;2022-08-02T06:51:03;20.30;99.90
7814;DHT22;3952;48.364;16.022;2022-08-02T06:53:30;20.40;99.90
7814;DHT22;3952;48.364;16.022;2022-08-02T06:56:00;20.50;99.90
7814;DHT22;3952;48.364;16.022;2022-08-02T06:58:27;20.50;99.90
7814;DHT22;3952;48.364;16.022;2022-08-02T07:00:55;20.60;99.90
7814;DHT22;3952;48.364;16.022;2022-08-02T07:03:22;20.60;99.90
7814;DHT22;3952;48.364;16.022;2022-08-02T07:05:50;20.70;99.90
7814;DHT22;3952;48.364;16.022;2022-08-02T07:08:18;20.80;99.90
7814;DHT22;3952;48.364;16.022;2022-08-02T07:10:46;20.90;99.90
7814;DHT22;3952;48.364;16.022;2022-08-02T07:13:14;21.00;99.90
7814;DHT22;3952;48.364;16.022;2022-08-02T07:15:42;21.10;99.90
7814;DHT22;3952;48.364;16.022;2022-08-02T07:18:09;21.10;99.90
7814;DHT22;3952;48.364;16.022;2022-08-02T07:20:40;21.20;99.90
7814;DHT22;3952;48.364;16.022;2022-08-02T07:23:07;21.30;99.90
7814;DHT22;3952;48.364;16.022;2022-08-02T07:25:35;21.40;99.90
7814;DHT22;3952;48.364;16.022;2022-08-02T07:28:02;21.40;99.90
7814;DHT22;3952;48.364;16.022;2022-08-02T07:30:31;21.50;99.90
7814;DHT22;3952;48.364;16.022;2022-08-02T07:32:59;21.60;99.90
7814;DHT22;3952;48.364;16.022;2022-08-02T07:35:26;21.60;99.90
7814;DHT22;3952;48.364;16.022;2022-08-02T07:37:53;21.70;99.90
7814;DHT22;3952;48.364;16.022;2022-08-02T07:40:21;21.70;99.90
7814;DHT22;3952;48.364;16.022;2022-08-02T07:42:49;21.80;99.90
7814;DHT22;3952;48.364;16.022;2022-08-02T07:45:18;21.80;99.90
7814;DHT22;3952;48.364;16.022;2022-08-02T07:47:47;21.90;99.90
7814;DHT22;3952;48.364;16.022;2022-08-02T07:50:16;22.00;99.90
7814;DHT22;3952;48.364;16.022;2022-08-02T07:52:43;22.20;99.90
7814;DHT22;3952;48.364;16.022;2022-08-02T07:55:12;22.40;99.90
7814;DHT22;3952;48.364;16.022;2022-08-02T07:57:40;22.50;99.90
7814;DHT22;3952;48.364;16.022;2022-08-02T08:00:08;22.70;99.90
7814;DHT22;3952;48.364;16.022;2022-08-02T08:02:36;22.90;99.90
7814;DHT22;3952;48.364;16.022;2022-08-02T08:05:06;23.10;99.90
7814;DHT22;3952;48.364;16.022;2022-08-02T08:07:33;23.20;99.90
7814;DHT22;3952;48.364;16.022;2022-08-02T08:10:01;23.40;99.90
7814;DHT22;3952;48.364;16.022;2022-08-02T08:12:28;23.50;99.90
7814;DHT22;3952;48.364;16.022;2022-08-02T08:14:55;23.60;99.90
7814;DHT22;3952;48.364;16.022;2022-08-02T08:17:22;23.80;99.90
7814;DHT22;3952;48.364;16.022;2022-08-02T08:19:49;23.90;99.90
7814;DHT22;3952;48.364;16.022;2022-08-02T08:22:18;24.00;99.90
7814;DHT22;3952;48.364;16.022;2022-08-02T08:24:45;24.10;99.90
7814;DHT22;3952;48.364;16.022;2022-08-02T08:27:13;24.30;99.90
7814;DHT22;3952;48.364;16.022;2022-08-02T08:29:41;24.40;99.90
7814;DHT22;3952;48.364;16.022;2022-08-02T08:32:08;24.50;99.90
7814;DHT22;3952;48.364;16.022;2022-08-02T08:34:36;24.60;99.90
7814;DHT22;3952;48.364;16.022;2022-08-02T08:37:03;24.70;99.90
7814;DHT22;3952;48.364;16.022;2022-08-02T08:39:32;24.80;99.90
7814;DHT22;3952;48.364;16.022;2022-08-02T08:41:59;25.00;99.90
7814;DHT22;3952;48.364;16.022;2022-08-02T08:44:27;25.10;99.90
7814;DHT22;3952;48.364;16.022;2022-08-02T08:46:55;25.20;99.90
7814;DHT22;3952;48.364;16.022;2022-08-02T08:49:26;25.30;99.90
7814;DHT22;3952;48.364;16.022;2022-08-02T08:51:56;25.40;99.90
7814;DHT22;3952;48.364;16.022;2022-08-02T08:54:27;25.40;99.90
7814;DHT22;3952;48.364;16.022;2022-08-02T08:56:58;25.50;99.90
7814;DHT22;3952;48.364;16.022;2022-08-02T08:59:25;25.50;99.90
7814;DHT22;3952;48.364;16.022;2022-08-02T09:01:53;25.60;99.90
7814;DHT22;3952;48.364;16.022;2022-08-02T09:04:21;25.70;99.90
7814;DHT22;3952;48.364;16.022;2022-08-02T09:06:49;25.70;99.90
7814;DHT22;3952;48.364;16.022;2022-08-02T09:09:16;25.80;99.90
7814;DHT22;3952;48.364;16.022;2022-08-02T09:11:43;25.90;99.90
7814;DHT22;3952;48.364;16.022;2022-08-02T09:14:25;26.00;99.90
7814;DHT22;3952;48.364;16.022;2022-08-02T09:16:52;26.10;99.90
7814;DHT22;3952;48.364;16.022;2022-08-02T09:19:22;26.10;99.90
7814;DHT22;3952;48.364;16.022;2022-08-02T09:21:51;26.20;99.90
7814;DHT22;3952;48.364;16.022;2022-08-02T09:24:20;26.30;99.90
7814;DHT22;3952;48.364;16.022;2022-08-02T09:26:48;26.40;99.90
7814;DHT22;3952;48.364;16.022;2022-08-02T09:29:20;26.40;99.90
7814;DHT22;3952;48.364;16.022;2022-08-02T09:31:49;26.50;99.90
7814;DHT22;3952;48.364;16.022;2022-08-02T09:34:16;26.70;99.90
7814;DHT22;3952;48.364;16.022;2022-08-02T09:36:45;26.70;99.90
7814;DHT22;3952;48.364;16.022;2022-08-02T09:39:14;26.90;99.90
7814;DHT22;3952;48.364;16.022;2022-08-02T09:41:44;27.00;99.90
7814;DHT22;3952;48.364;16.022;2022-08-02T09:44:13;27.00;99.90
7814;DHT22;3952;48.364;16.022;2022-08-02T09:46:43;27.20;99.90
7814;DHT22;3952;48.364;16.022;2022-08-02T09:49:12;27.20;99.90
7814;DHT22;3952;48.364;16.022;2022-08-02T09:51:49;27.30;99.90
7814;DHT22;3952;48.364;16.022;2022-08-02T09:54:19;27.40;99.90
7814;DHT22;3952;48.364;16.022;2022-08-02T09:56:49;27.40;99.90
7814;DHT22;3952;48.364;16.022;2022-08-02T09:59:18;27.60;99.90
7814;DHT22;3952;48.364;16.022;2022-08-02T10:01:47;27.60;99.90
7814;DHT22;3952;48.364;16.022;2022-08-02T10:04:18;27.60;99.90
7814;DHT22;3952;48.364;16.022;2022-08-02T10:06:46;27.70;99.90
7814;DHT22;3952;48.364;16.022;2022-08-02T10:09:15;27.80;99.90
7814;DHT22;3952;48.364;16.022;2022-08-02T10:11:42;27.80;99.90
7814;DHT22;3952;48.364;16.022;2022-08-02T10:14:10;27.90;99.90
7814;DHT22;3952;48.364;16.022;2022-08-02T10:16:38;28.00;99.90
7814;DHT22;3952;48.364;16.022;2022-08-02T10:19:08;28.00;99.90
7814;DHT22;3952;48.364;16.022;2022-08-02T10:21:51;27.80;99.90
7814;DHT22;3952;48.364;16.022;2022-08-02T10:24:23;27.80;99.90
7814;DHT22;3952;48.364;16.022;2022-08-02T10:26:53;27.70;99.90
7814;DHT22;3952;48.364;16.022;2022-08-02T10:29:26;27.70;99.90
7814;DHT22;3952;48.364;16.022;2022-08-02T10:31:58;27.70;99.90
7814;DHT22;3952;48.364;16.022;2022-08-02T10:34:32;27.70;99.90
7814;DHT22;3952;48.364;16.022;2022-08-02T10:37:02;27.60;99.90
7814;DHT22;3952;48.364;16.022;2022-08-02T10:39:37;27.60;99.90
7814;DHT22;3952;48.364;16.022;2022-08-02T10:42:05;27.60;99.90
7814;DHT22;3952;48.364;16.022;2022-08-02T10:44:33;27.70;99.90
7814;DHT22;3952;48.364;16.022;2022-08-02T10:47:24;27.70;99.90
7814;DHT22;3952;48.364;16.022;2022-08-02T10:49:54;27.70;99.90
7814;DHT22;3952;48.364;16.022;2022-08-02T10:52:23;27.70;99.90
7814;DHT22;3952;48.364;16.022;2022-08-02T10:54:55;27.80;99.90
7814;DHT22;3952;48.364;16.022;2022-08-02T10:57:23;27.90;99.90
7814;DHT22;3952;48.364;16.022;2022-08-02T10:59:54;28.00;99.90
7814;DHT22;3952;48.364;16.022;2022-08-02T11:02:39;28.20;99.90
7814;DHT22;3952;48.364;16.022;2022-08-02T11:05:11;28.30;99.90
7814;DHT22;3952;48.364;16.022;2022-08-02T11:07:41;28.50;99.90
7814;DHT22;3952;48.364;16.022;2022-08-02T11:10:33;28.50;99.90
7814;DHT22;3952;48.364;16.022;2022-08-02T11:13:04;28.60;99.90
7814;DHT22;3952;48.364;16.022;2022-08-02T11:15:49;28.60;99.90
7814;DHT22;3952;48.364;16.022;2022-08-02T11:18:16;28.70;99.90
7814;DHT22;3952;48.364;16.022;2022-08-02T11:20:45;28.70;99.90
7814;DHT22;3952;48.364;16.022;2022-08-02T11:23:35;28.70;99.90
7814;DHT22;3952;48.364;16.022;2022-08-02T11:26:42;28.70;99.90
7814;DHT22;3952;48.364;16.022;2022-08-02T11:29:10;28.60;99.90
7814;DHT22;3952;48.364;16.022;2022-08-02T11:31:39;28.70;99.90
7814;DHT22;3952;48.364;16.022;2022-08-02T11:34:06;28.70;99.90
7814;DHT22;3952;48.364;16.022;2022-08-02T11:36:42;28.80;99.90
7814;DHT22;3952;48.364;16.022;2022-08-02T11:39:10;28.80;99.90
7814;DHT22;3952;48.364;16.022;2022-08-02T11:41:38;28.80;99.90
7814;DHT22;3952;48.364;16.022;2022-08-02T11:44:06;28.80;99.90
7814;DHT22;3952;48.364;16.022;2022-08-02T11:46:33;28.60;99.90
7814;DHT22;3952;48.364;16.022;2022-08-02T11:49:14;28.50;99.90
7814;DHT22;3952;48.364;16.022;2022-08-02T11:51:53;28.40;99.90
7814;DHT22;3952;48.364;16.022;2022-08-02T11:54:23;28.40;99.90
7814;DHT22;3952;48.364;16.022;2022-08-02T11:56:50;28.40;99.90
7814;DHT22;3952;48.364;16.022;2022-08-02T11:59:18;28.50;99.90
7814;DHT22;3952;48.364;16.022;2022-08-02T12:01:45;28.60;99.90
7814;DHT22;3952;48.364;16.022;2022-08-02T12:04:18;28.60;99.90
7814;DHT22;3952;48.364;16.022;2022-08-02T12:06:58;28.60;99.90
7814;DHT22;3952;48.364;16.022;2022-08-02T12:09:27;28.60;99.90
7814;DHT22;3952;48.364;16.022;2022-08-02T12:11:55;28.50;99.90
7814;DHT22;3952;48.364;16.022;2022-08-02T12:14:24;28.60;99.90
7814;DHT22;3952;48.364;16.022;2022-08-02T12:16:53;28.70;99.90
7814;DHT22;3952;48.364;16.022;2022-08-02T12:19:38;28.80;99.90
7814;DHT22;3952;48.364;16.022;2022-08-02T12:22:12;28.80;99.90
7814;DHT22;3952;48.364;16.022;2022-08-02T12:24:40;28.80;99.90
7814;DHT22;3952;48.364;16.022;2022-08-02T12:27:08;28.80;99.90
7814;DHT22;3952;48.364;16.022;2022-08-02T12:29:36;28.90;99.90
7814;DHT22;3952;48.364;16.022;2022-08-02T12:32:04;28.90;99.90
7814;DHT22;3952;48.364;16.022;2022-08-02T12:34:33;28.90;99.90
7814;DHT22;3952;48.364;16.022;2022-08-02T12:37:03;28.90;99.90
7814;DHT22;3952;48.364;16.022;2022-08-02T12:39:37;28.90;99.90
7814;DHT22;3952;48.364;16.022;2022-08-02T12:42:07;28.90;99.90
7814;DHT22;3952;48.364;16.022;2022-08-02T12:44:36;28.80;99.90
7814;DHT22;3952;48.364;16.022;2022-08-02T12:47:05;28.70;99.90
7814;DHT22;3952;48.364;16.022;2022-08-02T12:49:32;28.80;99.90
7814;DHT22;3952;48.364;16.022;2022-08-02T12:51:59;28.80;99.90
7814;DHT22;3952;48.364;16.022;2022-08-02T12:54:28;28.90;99.90
7814;DHT22;3952;48.364;16.022;2022-08-02T12:57:09;28.80;99.90
7814;DHT22;3952;48.364;16.022;2022-08-02T12:59:38;28.80;99.90
7814;DHT22;3952;48.364;16.022;2022-08-02T13:02:06;28.90;99.90
7814;DHT22;3952;48.364;16.022;2022-08-02T13:04:35;28.90;99.90
7814;DHT22;3952;48.364;16.022;2022-08-02T13:07:03;29.00;99.90
7814;DHT22;3952;48.364;16.022;2022-08-02T13:09:35;29.00;99.90
7814;DHT22;3952;48.364;16.022;2022-08-02T13:12:04;29.10;99.90
7814;DHT22;3952;48.364;16.022;2022-08-02T13:14:32;29.10;99.90
7814;DHT22;3952;48.364;16.022;2022-08-02T13:17:00;29.10;99.90
7814;DHT22;3952;48.364;16.022;2022-08-02T13:19:27;29.10;99.90
7814;DHT22;3952;48.364;16.022;2022-08-02T13:21:54;29.00;99.90
7814;DHT22;3952;48.364;16.022;2022-08-02T13:24:22;29.10;99.90
7814;DHT22;3952;48.364;16.022;2022-08-02T13:26:49;28.90;99.90
7814;DHT22;3952;48.364;16.022;2022-08-02T13:29:17;28.80;99.90
7814;DHT22;3952;48.364;16.022;2022-08-02T13:31:44;28.70;99.90
7814;DHT22;3952;48.364;16.022;2022-08-02T13:34:12;28.70;99.90
7814;DHT22;3952;48.364;16.022;2022-08-02T13:36:41;28.70;99.90
7814;DHT22;3952;48.364;16.022;2022-08-02T13:39:08;28.70;99.90
7814;DHT22;3952;48.364;16.022;2022-08-02T13:41:36;28.70;99.90
7814;DHT22;3952;48.364;16.022;2022-08-02T13:44:05;28.70;99.90
7814;DHT22;3952;48.364;16.022;2022-08-02T13:46:34;28.70;99.90
7814;DHT22;3952;48.364;16.022;2022-08-02T13:49:04;28.70;99.90
7814;DHT22;3952;48.364;16.022;2022-08-02T13:51:31;28.80;99.90
7814;DHT22;3952;48.364;16.022;2022-08-02T13:53:58;28.80;99.90
7814;DHT22;3952;48.364;16.022;2022-08-02T13:56:26;28.90;99.90
7814;DHT22;3952;48.364;16.022;2022-08-02T13:58:53;28.90;99.90
7814;DHT22;3952;48.364;16.022;2022-08-02T14:01:20;28.80;99.90
7814;DHT22;3952;48.364;16.022;2022-08-02T14:03:49;28.80;99.90
7814;DHT22;3952;48.364;16.022;2022-08-02T14:06:17;28.80;99.90
7814;DHT22;3952;48.364;16.022;2022-08-02T14:08:44;28.80;99.90
7814;DHT22;3952;48.364;16.022;2022-08-02T14:11:11;28.80;99.90
7814;DHT22;3952;48.364;16.022;2022-08-02T14:13:39;28.70;99.90
7814;DHT22;3952;48.364;16.022;2022-08-02T14:16:06;28.60;99.90
7814;DHT22;3952;48.364;16.022;2022-08-02T14:18:33;28.50;99.90
7814;DHT22;3952;48.364;16.022;2022-08-02T14:21:02;28.40;99.90
7814;DHT22;3952;48.364;16.022;2022-08-02T14:23:29;28.40;99.90
7814;DHT22;3952;48.364;16.022;2022-08-02T14:25:57;28.30;99.90
7814;DHT22;3952;48.364;16.022;2022-08-02T14:28:25;28.30;99.90
7814;DHT22;3952;48.364;16.022;2022-08-02T14:30:52;28.30;99.90
7814;DHT22;3952;48.364;16.022;2022-08-02T14:33:19;28.30;99.90
7814;DHT22;3952;48.364;16.022;2022-08-02T14:35:46;28.30;99.90
7814;DHT22;3952;48.364;16.022;2022-08-02T14:38:15;28.40;99.90
7814;DHT22;3952;48.364;16.022;2022-08-02T14:40:43;28.40;99.90
7814;DHT22;3952;48.364;16.022;2022-08-02T14:43:11;28.50;99.90
7814;DHT22;3952;48.364;16.022;2022-08-02T14:45:59;28.40;99.90
7814;DHT22;3952;48.364;16.022;2022-08-02T14:48:27;28.40;99.90
7814;DHT22;3952;48.364;16.022;2022-08-02T14:50:54;28.50;99.90
7814;DHT22;3952;48.364;16.022;2022-08-02T14:53:23;28.50;99.90
7814;DHT22;3952;48.364;16.022;2022-08-02T14:55:50;28.50;99.90
7814;DHT22;3952;48.364;16.022;2022-08-02T14:58:18;28.50;99.90
7814;DHT22;3952;48.364;16.022;2022-08-02T15:00:45;28.50;99.90
7814;DHT22;3952;48.364;16.022;2022-08-02T15:03:12;28.50;99.90
7814;DHT22;3952;48.364;16.022;2022-08-02T15:05:39;28.50;99.90
7814;DHT22;3952;48.364;16.022;2022-08-02T15:08:07;28.50;99.90
7814;DHT22;3952;48.364;16.022;2022-08-02T15:10:35;28.50;99.90
7814;DHT22;3952;48.364;16.022;2022-08-02T15:13:03;28.50;99.90
7814;DHT22;3952;48.364;16.022;2022-08-02T15:15:30;28.50;99.90
7814;DHT22;3952;48.364;16.022;2022-08-02T15:17:57;28.50;99.90
7814;DHT22;3952;48.364;16.022;2022-08-02T15:20:24;28.50;99.90
7814;DHT22;3952;48.364;16.022;2022-08-02T15:22:51;28.50;99.90
7814;DHT22;3952;48.364;16.022;2022-08-02T15:25:19;28.50;99.90
7814;DHT22;3952;48.364;16.022;2022-08-02T15:27:47;28.50;99.90
7814;DHT22;3952;48.364;16.022;2022-08-02T15:30:15;28.60;99.90
7814;DHT22;3952;48.364;16.022;2022-08-02T15:32:42;28.50;99.90
7814;DHT22;3952;48.364;16.022;2022-08-02T15:35:11;28.50;99.90
7814;DHT22;3952;48.364;16.022;2022-08-02T15:37:38;28.60;99.90
7814;DHT22;3952;48.364;16.022;2022-08-02T15:40:06;28.60;99.90
7814;DHT22;3952;48.364;16.022;2022-08-02T15:42:34;28.60;99.90
7814;DHT22;3952;48.364;16.022;2022-08-02T15:45:03;28.60;99.90
7814;DHT22;3952;48.364;16.022;2022-08-02T15:47:30;28.60;99.90
7814;DHT22;3952;48.364;16.022;2022-08-02T15:49:57;28.50;99.90
7814;DHT22;3952;48.364;16.022;2022-08-02T15:52:25;28.50;99.90
7814;DHT22;3952;48.364;16.022;2022-08-02T15:54:52;28.50;99.90
7814;DHT22;3952;48.364;16.022;2022-08-02T15:57:19;28.50;99.90
7814;DHT22;3952;48.364;16.022;2022-08-02T15:59:46;28.50;99.90